ePrivacy and GPDR Cookie Consent by Cookie Consent
EmailTwitter


Observations de surface / France / LFBO (07630)

Régions: Québec | Canada | États-Unis | Europe | France | UK | Ailleurs
Station
Affichage
Infos & localisation pour LFBO (07630) | Aide pour décoder les METARs

Observations prises le 2021-07-28 à 20H00 UTC à TOULOUSE/BLAGNAC, FR (LFBO)

Température: 21.0 Celsius

Point de rosée: 16.0 Celsius

Humidité relative: 73%

Indice Humidex 26.

Vents: Variable à 6 km/h ou 3 noeuds.

Pression au niveau moyen de la mer: 101.80 kilopascals.

Observation METAR:

LFBO 282000Z AUTO VRB03KT CAVOK 21/16 Q1018 NOSIG=